Time;durP1;ratioP1;P1;durP2;ratioP2;P2;SDS_P1;SDS_P2;PMS_P1;PMS_P2;Temp;Humidity;BMP_temperature;BMP_pressure;BME280_temperature;BME280_humidity;BME280_pressure;Samples;Min_cycle;Max_cycle;Signal;HPM_P1;HPM_P2
2021/08/06 00:05:21;;;;;;;4.85;2.55;;;17.40;99.90;;;;;;6732257;88;20206;-76
2021/08/06 00:15:22;;;;;;;5.47;2.63;;;17.40;99.90;;;;;;6734704;88;20196;-76
2021/08/06 00:25:22;;;;;;;5.75;2.45;;;17.30;99.90;;;;;;6734960;88;20229;-76
2021/08/06 00:35:23;;;;;;;5.45;2.40;;;17.30;99.90;;;;;;6734125;88;20365;-76
2021/08/06 00:45:24;;;;;;;3.80;2.22;;;17.30;99.90;;;;;;6732867;88;20220;-76
2021/08/06 00:55:24;;;;;;;5.55;2.35;;;17.30;99.90;;;;;;6720037;88;20231;-77
2021/08/06 01:05:35;;;;;;;3.57;2.53;;;17.30;99.90;;;;;;6731196;88;20229;-76
2021/08/06 01:15:37;;;;;;;4.85;2.40;;;17.30;99.90;;;;;;6722869;88;20189;-76
2021/08/06 01:25:51;;;;;;;5.82;2.90;;;17.40;99.90;;;;;;6727756;88;20256;-76
2021/08/06 01:35:51;;;;;;;4.47;2.22;;;17.40;99.90;;;;;;6717080;88;20197;-77
2021/08/06 01:46:04;;;;;;;3.53;2.08;;;17.50;99.90;;;;;;6715324;88;20214;-76
2021/08/06 01:56:08;;;;;;;3.65;2.10;;;17.50;99.90;;;;;;6733569;88;20231;-76
2021/08/06 02:06:09;;;;;;;2.90;1.85;;;17.50;99.90;;;;;;6733558;88;20222;-76
2021/08/06 02:16:10;;;;;;;4.53;1.92;;;17.60;99.90;;;;;;6734382;88;20686;-76
2021/08/06 02:26:12;;;;;;;5.87;2.22;;;17.50;99.90;;;;;;6734113;88;20217;-76
2021/08/06 02:36:13;;;;;;;4.72;2.22;;;17.50;99.90;;;;;;6732074;88;20334;-76
2021/08/06 02:46:15;;;;;;;6.10;2.40;;;17.30;99.90;;;;;;6743489;88;20278;-76
2021/08/06 02:56:16;;;;;;;4.10;2.80;;;17.10;99.90;;;;;;6741337;88;20207;-76
2021/08/06 03:06:16;;;;;;;6.18;2.60;;;17.00;99.90;;;;;;6744199;88;20227;-77
2021/08/06 03:16:17;;;;;;;5.47;2.50;;;16.90;99.90;;;;;;6743734;88;20252;-76
2021/08/06 03:26:18;;;;;;;7.80;2.83;;;16.80;99.90;;;;;;6742474;88;20536;-76
2021/08/06 03:36:18;;;;;;;6.23;3.10;;;16.70;99.90;;;;;;6742237;88;20652;-77
2021/08/06 03:46:19;;;;;;;4.30;2.92;;;16.70;99.90;;;;;;6742976;88;20197;-77
2021/08/06 03:56:19;;;;;;;6.20;2.90;;;16.70;99.90;;;;;;6746878;88;20693;-77
2021/08/06 04:06:20;;;;;;;5.82;2.90;;;16.70;99.90;;;;;;6746378;88;20197;-78
2021/08/06 04:16:20;;;;;;;5.07;2.85;;;16.70;99.90;;;;;;6747196;88;20172;-77
2021/08/06 04:26:21;;;;;;;7.90;2.33;;;16.70;99.90;;;;;;6747240;88;20277;-77
2021/08/06 04:36:21;;;;;;;6.95;2.12;;;16.80;99.90;;;;;;6747697;88;20619;-76
2021/08/06 04:46:22;;;;;;;3.12;2.22;;;16.90;99.90;;;;;;6744864;88;20272;-77
2021/08/06 04:56:22;;;;;;;5.05;2.70;;;16.90;99.90;;;;;;6745006;88;20343;-77
2021/08/06 05:06:23;;;;;;;4.17;2.37;;;16.90;99.90;;;;;;6745753;88;20259;-76
2021/08/06 05:16:23;;;;;;;8.13;2.47;;;16.90;99.90;;;;;;6741038;88;20307;-77
2021/08/06 05:26:24;;;;;;;4.22;2.75;;;17.00;99.90;;;;;;6743437;88;20200;-76
2021/08/06 05:36:24;;;;;;;6.22;4.00;;;16.50;99.90;;;;;;6742512;88;20744;-77
2021/08/06 05:46:25;;;;;;;6.65;4.10;;;16.40;99.90;;;;;;6739398;88;20607;-77
2021/08/06 05:56:26;;;;;;;6.25;4.00;;;16.20;99.90;;;;;;6741764;88;20644;-78
2021/08/06 06:06:26;;;;;;;6.45;4.72;;;16.30;99.90;;;;;;6741397;88;20219;-78
2021/08/06 06:16:29;;;;;;;8.02;4.03;;;16.30;99.90;;;;;;6741373;88;20545;-79
2021/08/06 06:26:30;;;;;;;9.73;6.18;;;16.30;99.90;;;;;;6739732;88;20191;-78
2021/08/06 06:36:31;;;;;;;13.40;6.87;;;16.40;99.90;;;;;;6743728;88;20218;-78
2021/08/06 06:46:31;;;;;;;6.83;4.27;;;16.60;99.90;;;;;;6747628;88;20514;-77
2021/08/06 06:56:32;;;;;;;3.15;1.75;;;16.70;99.90;;;;;;6751126;88;20174;-76
2021/08/06 07:06:32;;;;;;;2.90;1.50;;;16.90;99.90;;;;;;6748546;88;20695;-76
2021/08/06 07:16:33;;;;;;;2.85;1.40;;;16.80;99.90;;;;;;6738007;88;20311;-76
2021/08/06 07:26:34;;;;;;;6.67;1.90;;;16.80;99.90;;;;;;6737920;88;20245;-77
2021/08/06 07:36:34;;;;;;;4.60;1.98;;;17.10;99.90;;;;;;6743788;88;20222;-76
2021/08/06 07:46:35;;;;;;;3.87;2.10;;;17.40;99.90;;;;;;6731660;88;20231;-77
2021/08/06 07:56:35;;;;;;;4.25;2.20;;;17.70;99.90;;;;;;6716973;88;20201;-76
2021/08/06 08:06:36;;;;;;;3.75;2.37;;;17.90;99.90;;;;;;6716000;88;20212;-76
2021/08/06 08:16:36;;;;;;;3.17;1.80;;;18.30;99.90;;;;;;6712526;88;20225;-77
2021/08/06 08:26:38;;;;;;;3.67;1.67;;;18.90;99.90;;;;;;6718111;88;20217;-77
2021/08/06 08:36:38;;;;;;;3.25;1.20;;;19.60;99.90;;;;;;6716485;88;20256;-76
2021/08/06 08:46:41;;;;;;;3.12;1.00;;;20.40;99.90;;;;;;6723366;88;20213;-77
2021/08/06 08:56:43;;;;;;;1.70;0.90;;;20.00;99.90;;;;;;6723683;88;20254;-77
2021/08/06 09:06:44;;;;;;;1.77;0.90;;;20.50;99.90;;;;;;6723646;88;20304;-75
2021/08/06 09:16:55;;;;;;;3.05;1.05;;;20.90;99.90;;;;;;6723988;88;20184;-76
2021/08/06 09:26:55;;;;;;;2.25;1.08;;;20.50;99.90;;;;;;6722880;88;20213;-76
2021/08/06 09:37:01;;;;;;;2.30;1.10;;;20.30;99.90;;;;;;6722252;88;20185;-77
2021/08/06 09:47:21;;;;;;;2.65;1.45;;;19.30;99.90;;;;;;6724080;88;20240;-76
2021/08/06 09:57:22;;;;;;;2.72;1.30;;;18.80;99.90;;;;;;6723371;88;20698;-77
2021/08/06 10:07:27;;;;;;;2.15;1.40;;;19.00;99.90;;;;;;6722726;88;20208;-77
2021/08/06 10:17:28;;;;;;;3.95;1.40;;;19.00;99.90;;;;;;6718777;88;20192;-77
2021/08/06 10:27:29;;;;;;;4.60;1.30;;;19.90;99.90;;;;;;6721892;88;20200;-76
2021/08/06 10:37:48;;;;;;;3.15;0.80;;;20.20;99.90;;;;;;6718308;88;20605;-78
2021/08/06 10:47:50;;;;;;;1.48;0.70;;;19.90;99.90;;;;;;6721710;88;20204;-75
2021/08/06 10:57:51;;;;;;;1.50;0.82;;;18.20;99.90;;;;;;6721132;88;20215;-76
2021/08/06 11:07:51;;;;;;;2.90;1.00;;;18.50;99.90;;;;;;6722487;88;20184;-75
2021/08/06 11:17:52;;;;;;;2.75;1.02;;;19.30;99.90;;;;;;6721420;88;20189;-77
2021/08/06 11:28:01;;;;;;;2.40;1.10;;;20.60;99.90;;;;;;6721727;88;20216;-77
2021/08/06 11:38:09;;;;;;;2.78;1.00;;;21.10;99.90;;;;;;6722695;88;20189;-77
2021/08/06 11:48:11;;;;;;;2.50;0.90;;;23.30;99.90;;;;;;6728483;88;20219;-76
2021/08/06 11:58:12;;;;;;;2.58;0.85;;;24.50;99.90;;;;;;6724551;88;20203;-76
2021/08/06 12:08:23;;;;;;;2.62;0.90;;;24.00;99.90;;;;;;6729412;88;20276;-78
2021/08/06 12:18:24;;;;;;;3.05;0.90;;;24.60;99.90;;;;;;6740742;88;20200;-77
2021/08/06 12:28:24;;;;;;;1.77;0.70;;;23.30;99.90;;;;;;6739804;88;20221;-77
2021/08/06 12:38:25;;;;;;;1.60;0.95;;;22.20;99.90;;;;;;6742049;88;20647;-78
2021/08/06 12:48:25;;;;;;;1.75;0.90;;;22.50;99.90;;;;;;6727661;88;20610;-77
2021/08/06 12:58:26;;;;;;;2.87;0.90;;;22.60;99.90;;;;;;6732679;88;20294;-77
2021/08/06 13:08:36;;;;;;;1.95;0.77;;;23.10;99.90;;;;;;6737316;88;20212;-77
2021/08/06 13:18:36;;;;;;;2.10;1.00;;;25.10;99.90;;;;;;6733223;88;20251;-78
2021/08/06 13:28:38;;;;;;;2.12;1.00;;;24.90;99.90;;;;;;6732214;88;20229;-77
2021/08/06 13:38:39;;;;;;;3.00;0.90;;;23.70;99.90;;;;;;6724248;88;20706;-77
2021/08/06 13:48:39;;;;;;;3.33;0.98;;;22.90;99.90;;;;;;6726460;88;20197;-79
2021/08/06 13:58:40;;;;;;;2.87;1.10;;;24.00;99.90;;;;;;6727254;88;20211;-78
2021/08/06 14:08:41;;;;;;;3.95;1.20;;;23.10;99.90;;;;;;6736240;88;20175;-77
2021/08/06 14:18:42;;;;;;;3.22;1.23;;;23.00;99.90;;;;;;6725141;88;20305;-79
2021/08/06 14:28:42;;;;;;;2.83;1.10;;;22.80;99.90;;;;;;6729623;88;20244;-79
2021/08/06 14:48:46;;;;;;;1.67;1.00;;;24.10;99.90;;;;;;6729436;88;20217;-77
2021/08/06 14:58:47;;;;;;;2.15;1.00;;;24.20;99.90;;;;;;6720859;88;20620;-79
2021/08/06 15:08:48;;;;;;;1.95;0.95;;;23.80;99.90;;;;;;6716033;88;20170;-78
2021/08/06 15:18:49;;;;;;;2.05;0.82;;;23.60;99.90;;;;;;6717971;88;20199;-77
2021/08/06 15:28:50;;;;;;;1.90;0.93;;;23.30;99.90;;;;;;6717467;88;20234;-78
2021/08/06 15:38:52;;;;;;;2.95;0.90;;;23.20;99.90;;;;;;6714332;88;20621;-78
2021/08/06 15:48:53;;;;;;;2.12;0.70;;;24.00;99.90;;;;;;6721184;88;20220;-78
2021/08/06 15:58:54;;;;;;;2.55;0.70;;;24.50;99.90;;;;;;6720532;88;20178;-78
2021/08/06 16:08:54;;;;;;;1.55;0.82;;;23.80;99.90;;;;;;6718646;88;20194;-77
2021/08/06 16:18:55;;;;;;;1.08;0.40;;;23.00;99.90;;;;;;6714816;88;20386;-77
2021/08/06 16:28:56;;;;;;;1.10;0.50;;;23.00;99.90;;;;;;6715175;88;20203;-77
2021/08/06 16:38:56;;;;;;;1.00;0.50;;;22.30;99.90;;;;;;6720916;88;20190;-76
2021/08/06 16:48:57;;;;;;;1.65;0.40;;;23.00;99.90;;;;;;6719195;88;20220;-77
2021/08/06 16:58:58;;;;;;;2.33;1.70;;;22.20;99.90;;;;;;6720537;88;20198;-76
2021/08/06 17:08:58;;;;;;;1.08;0.60;;;22.10;99.90;;;;;;6715614;88;20199;-77
2021/08/06 17:18:59;;;;;;;4.57;2.73;;;21.90;99.90;;;;;;6714054;88;20632;-76
2021/08/06 17:29:00;;;;;;;2.17;1.10;;;22.20;99.90;;;;;;6717706;88;20202;-76
2021/08/06 17:39:00;;;;;;;2.53;0.62;;;23.40;99.90;;;;;;6720456;88;20557;-77
2021/08/06 17:49:01;;;;;;;0.90;0.60;;;24.20;99.90;;;;;;6711248;88;20217;-78
2021/08/06 17:59:01;;;;;;;2.20;0.90;;;21.90;99.90;;;;;;6706605;88;20549;-77
2021/08/06 18:09:02;;;;;;;1.30;0.70;;;20.90;99.90;;;;;;6709555;88;20646;-77
2021/08/06 18:19:03;;;;;;;3.75;0.98;;;20.60;99.90;;;;;;6712582;88;20218;-77
2021/08/06 18:29:04;;;;;;;1.85;0.80;;;20.50;99.90;;;;;;6727728;88;21062;-77
2021/08/06 18:39:04;;;;;;;2.83;0.90;;;20.20;99.90;;;;;;6729391;88;20198;-76
2021/08/06 18:49:05;;;;;;;2.75;0.70;;;20.00;99.90;;;;;;6722552;88;20181;-76
2021/08/06 18:59:06;;;;;;;1.30;0.70;;;19.90;99.90;;;;;;6721703;88;20212;-77
2021/08/06 19:09:06;;;;;;;3.10;0.90;;;19.80;99.90;;;;;;6708817;88;20215;-76
2021/08/06 19:19:08;;;;;;;2.15;0.95;;;19.70;99.90;;;;;;6709642;88;20296;-78
2021/08/06 19:29:09;;;;;;;2.97;0.90;;;19.70;99.90;;;;;;6731786;88;20282;-78
2021/08/06 19:39:10;;;;;;;2.10;0.95;;;19.50;99.90;;;;;;6724436;88;20783;-77
2021/08/06 19:49:19;;;;;;;2.20;0.82;;;19.50;99.90;;;;;;6718473;88;20199;-78
2021/08/06 19:59:20;;;;;;;1.25;0.77;;;19.30;99.90;;;;;;6724549;88;20285;-78
2021/08/06 20:09:20;;;;;;;2.65;0.95;;;19.20;99.90;;;;;;6718840;88;20213;-76
2021/08/06 20:19:21;;;;;;;1.53;0.80;;;19.10;99.90;;;;;;6720121;88;20370;-77
2021/08/06 20:29:22;;;;;;;1.70;0.90;;;19.10;99.90;;;;;;6718296;88;20532;-78
2021/08/06 20:39:22;;;;;;;3.10;1.02;;;19.00;99.90;;;;;;6716483;77;20319;-76
2021/08/06 20:49:23;;;;;;;3.55;1.00;;;18.60;99.90;;;;;;6714227;88;20198;-76
2021/08/06 20:59:23;;;;;;;3.75;0.90;;;18.50;99.90;;;;;;6713944;88;20189;-76
2021/08/06 21:09:24;;;;;;;2.42;0.98;;;18.30;99.90;;;;;;6713615;88;20190;-76
2021/08/06 21:19:24;;;;;;;2.83;0.98;;;18.40;99.90;;;;;;6714628;88;20207;-76
2021/08/06 21:29:25;;;;;;;2.47;1.05;;;18.40;99.90;;;;;;6715024;88;20174;-76
2021/08/06 21:39:26;;;;;;;2.80;0.90;;;18.50;99.90;;;;;;6710829;88;20206;-76
2021/08/06 21:49:26;;;;;;;2.12;0.90;;;18.40;99.90;;;;;;6714021;88;20321;-76
2021/08/06 21:59:27;;;;;;;2.67;1.20;;;18.50;99.90;;;;;;6714266;88;20253;-76
2021/08/06 22:09:27;;;;;;;2.30;1.10;;;18.30;99.90;;;;;;6715292;88;20283;-76
2021/08/06 22:19:28;;;;;;;4.00;1.13;;;18.20;99.90;;;;;;6715595;88;20671;-75
2021/08/06 22:29:29;;;;;;;2.10;1.00;;;18.10;99.90;;;;;;6715013;88;20561;-75
2021/08/06 22:39:29;;;;;;;4.03;1.20;;;18.00;99.90;;;;;;6722965;88;20302;-76
2021/08/06 22:49:30;;;;;;;1.77;0.93;;;18.00;99.90;;;;;;6714554;88;20248;-76
2021/08/06 22:59:31;;;;;;;1.97;1.00;;;18.00;99.90;;;;;;6708359;88;20235;-75
2021/08/06 23:09:31;;;;;;;2.28;1.00;;;18.00;99.90;;;;;;6715852;88;20609;-75
2021/08/06 23:19:32;;;;;;;1.50;0.90;;;17.90;99.90;;;;;;6715256;88;20212;-76
2021/08/06 23:29:33;;;;;;;3.13;1.10;;;17.80;99.90;;;;;;6707700;88;20204;-75
2021/08/06 23:39:33;;;;;;;4.60;1.20;;;17.70;99.90;;;;;;6714516;88;20499;-76
2021/08/06 23:49:34;;;;;;;3.57;1.00;;;17.50;99.90;;;;;;6715011;88;20545;-75
2021/08/06 23:59:34;;;;;;;2.77;1.20;;;17.30;99.90;;;;;;6724717;88;20189;-75
